Time;durP1;ratioP1;P1;durP2;ratioP2;P2;SDS_P1;SDS_P2;PMS_P1;PMS_P2;Temp;Humidity;BMP_temperature;BMP_pressure;BME280_temperature;BME280_humidity;BME280_pressure;Samples;Min_cycle;Max_cycle;Signal;HPM_P1;HPM_P2
2021/09/02 00:00:55;;;;;;;11.43;10.23;;;18.30;81.40;;;;;;5136606;28;20031;-37
2021/09/02 00:03:20;;;;;;;18.15;11.30;;;18.30;81.50;;;;;;5136435;28;20027;-36
2021/09/02 00:05:46;;;;;;;14.43;11.15;;;18.30;81.80;;;;;;5136493;28;20028;-36
2021/09/02 00:08:12;;;;;;;18.02;11.10;;;18.30;81.80;;;;;;5139525;27;20088;-36
2021/09/02 00:10:37;;;;;;;12.63;10.52;;;18.30;81.80;;;;;;5140213;27;20110;-36
2021/09/02 00:13:03;;;;;;;13.68;11.68;;;18.30;82.00;;;;;;5140634;27;20027;-34
2021/09/02 00:15:29;;;;;;;15.02;12.00;;;18.30;82.00;;;;;;5140185;27;20490;-35
2021/09/02 00:17:55;;;;;;;12.85;11.55;;;18.30;82.10;;;;;;5140400;27;20063;-35
2021/09/02 00:20:21;;;;;;;24.25;13.85;;;18.30;82.20;;;;;;5140077;27;20102;-36
2021/09/02 00:22:47;;;;;;;14.32;11.75;;;18.30;82.40;;;;;;5140004;27;20041;-35
2021/09/02 00:25:13;;;;;;;14.85;12.63;;;18.30;82.30;;;;;;5140063;27;20373;-35
2021/09/02 00:27:39;;;;;;;16.75;12.30;;;18.30;82.30;;;;;;5139882;27;20031;-36
2021/09/02 00:30:06;;;;;;;13.73;10.95;;;18.20;82.30;;;;;;5139904;27;20122;-36
2021/09/02 00:32:32;;;;;;;18.92;12.80;;;18.20;82.50;;;;;;5139844;27;20026;-35
2021/09/02 00:34:57;;;;;;;14.82;12.60;;;18.20;82.70;;;;;;5140056;27;20157;-37
2021/09/02 00:37:23;;;;;;;13.85;11.75;;;18.20;82.60;;;;;;5139612;27;20023;-35
2021/09/02 00:39:48;;;;;;;12.88;11.30;;;18.20;82.60;;;;;;5139780;27;20030;-35
2021/09/02 00:42:14;;;;;;;17.13;13.23;;;18.20;82.70;;;;;;5139672;27;20023;-37
2021/09/02 00:44:42;;;;;;;14.65;12.23;;;18.20;82.90;;;;;;5121232;27;20042;-35
2021/09/02 00:47:09;;;;;;;19.48;13.52;;;18.20;82.80;;;;;;5139501;27;20311;-35
2021/09/02 00:49:36;;;;;;;13.25;11.95;;;18.20;82.80;;;;;;5140057;27;20054;-35
2021/09/02 00:52:07;;;;;;;17.67;13.02;;;18.20;82.70;;;;;;5139372;27;20027;-35
2021/09/02 00:54:33;;;;;;;16.70;12.63;;;18.20;82.70;;;;;;5139297;27;20459;-36
2021/09/02 00:56:59;;;;;;;13.43;12.02;;;18.20;82.70;;;;;;5139414;27;20024;-35
2021/09/02 00:59:26;;;;;;;17.80;11.60;;;18.20;82.70;;;;;;5139268;27;20411;-35
2021/09/02 01:01:55;;;;;;;15.25;13.60;;;18.20;82.90;;;;;;5139006;27;20031;-36
2021/09/02 01:04:22;;;;;;;12.63;11.38;;;18.10;82.80;;;;;;5139368;27;20441;-37
2021/09/02 01:06:49;;;;;;;15.35;13.70;;;18.10;82.90;;;;;;5139086;27;20403;-36
2021/09/02 01:09:15;;;;;;;13.35;12.02;;;18.10;82.80;;;;;;5139200;27;20019;-35
2021/09/02 01:11:41;;;;;;;15.98;13.38;;;18.10;82.90;;;;;;5139072;27;20023;-35
2021/09/02 01:14:07;;;;;;;13.90;11.45;;;18.10;83.30;;;;;;5139083;27;20327;-35
2021/09/02 01:16:32;;;;;;;15.63;11.80;;;18.10;83.40;;;;;;5138574;27;20031;-37
2021/09/02 01:18:58;;;;;;;13.75;11.93;;;18.10;83.40;;;;;;5119567;27;20031;-35
2021/09/02 01:21:23;;;;;;;13.68;10.98;;;18.10;83.20;;;;;;5139172;27;20080;-35
2021/09/02 01:23:49;;;;;;;10.95;9.65;;;18.10;82.80;;;;;;5139175;27;20027;-36
2021/09/02 01:26:18;;;;;;;14.10;9.63;;;18.20;82.80;;;;;;5138763;27;20042;-36
2021/09/02 01:28:44;;;;;;;12.77;9.15;;;18.20;82.50;;;;;;5139089;27;20031;-35
2021/09/02 01:31:12;;;;;;;9.70;8.80;;;18.20;81.90;;;;;;5138446;27;20028;-36
2021/09/02 01:33:45;;;;;;;8.75;7.88;;;18.30;82.10;;;;;;5138947;27;20110;-36
2021/09/02 01:36:11;;;;;;;11.68;9.40;;;18.30;81.20;;;;;;5138515;27;20034;-36
2021/09/02 01:38:37;;;;;;;9.38;7.80;;;18.30;81.40;;;;;;5138908;27;20024;-35
2021/09/02 01:41:04;;;;;;;11.27;7.95;;;18.20;80.80;;;;;;5138100;27;20035;-36
2021/09/02 01:43:29;;;;;;;8.85;7.90;;;18.20;81.10;;;;;;5138618;27;20031;-36
2021/09/02 01:45:55;;;;;;;9.05;8.15;;;18.20;81.30;;;;;;5138286;27;20045;-36
2021/09/02 01:48:21;;;;;;;10.68;7.45;;;18.20;81.20;;;;;;5138655;27;20055;-35
2021/09/02 01:50:46;;;;;;;7.22;6.53;;;18.30;80.90;;;;;;5138581;27;20101;-37
2021/09/02 01:53:14;;;;;;;8.02;7.07;;;18.30;80.50;;;;;;5138291;27;20442;-35
2021/09/02 01:55:42;;;;;;;8.07;6.20;;;18.30;80.40;;;;;;5138387;27;20323;-35
2021/09/02 01:58:08;;;;;;;9.70;6.80;;;18.30;80.30;;;;;;5138651;27;20026;-35
2021/09/02 02:00:35;;;;;;;7.68;6.68;;;18.20;80.30;;;;;;5138048;27;20019;-36
2021/09/02 02:03:00;;;;;;;7.50;6.78;;;18.20;80.00;;;;;;5138320;27;20027;-35
2021/09/02 02:05:26;;;;;;;7.15;6.45;;;18.20;80.10;;;;;;5137822;27;20160;-35
2021/09/02 02:07:52;;;;;;;6.65;6.00;;;18.20;80.00;;;;;;5138206;27;20031;-35
2021/09/02 02:10:22;;;;;;;10.07;6.90;;;18.20;80.30;;;;;;5138156;27;20038;-35
2021/09/02 02:12:48;;;;;;;9.10;7.63;;;18.20;80.20;;;;;;5138009;27;20034;-36
2021/09/02 02:15:15;;;;;;;7.03;6.32;;;18.20;80.60;;;;;;5137931;27;20035;-35
2021/09/02 02:17:42;;;;;;;7.10;6.50;;;18.20;80.70;;;;;;5137788;27;20429;-35
2021/09/02 02:20:09;;;;;;;7.18;6.47;;;18.20;80.60;;;;;;5138083;27;20439;-36
2021/09/02 02:22:34;;;;;;;12.95;6.97;;;18.20;80.70;;;;;;5137341;27;20027;-35
2021/09/02 02:25:00;;;;;;;8.38;6.97;;;18.10;80.80;;;;;;5137884;27;20035;-36
2021/09/02 02:27:26;;;;;;;7.25;6.65;;;18.10;81.10;;;;;;5137369;27;20284;-36
2021/09/02 02:29:52;;;;;;;7.55;6.18;;;18.10;81.40;;;;;;5137178;27;20035;-35
2021/09/02 02:32:17;;;;;;;8.45;7.65;;;18.10;81.30;;;;;;5137328;27;20027;-36
2021/09/02 02:34:43;;;;;;;6.75;5.97;;;18.10;81.60;;;;;;5137643;27;20031;-35
2021/09/02 02:37:09;;;;;;;6.88;6.28;;;18.10;82.10;;;;;;5118975;27;20031;-35
2021/09/02 02:39:38;;;;;;;7.57;6.85;;;18.10;81.50;;;;;;5137551;27;20411;-35
2021/09/02 02:42:08;;;;;;;8.63;6.40;;;18.10;81.60;;;;;;5137041;27;20114;-35
2021/09/02 02:44:35;;;;;;;7.65;6.90;;;18.10;81.20;;;;;;5137452;27;20375;-35
2021/09/02 02:47:01;;;;;;;7.72;5.90;;;18.10;81.30;;;;;;5137108;27;20019;-35
2021/09/02 02:49:27;;;;;;;6.03;5.47;;;18.10;81.20;;;;;;5137320;27;20352;-36
2021/09/02 02:51:53;;;;;;;8.55;6.18;;;18.00;81.30;;;;;;5137086;27;20023;-36
2021/09/02 02:54:19;;;;;;;7.88;7.00;;;18.00;81.40;;;;;;5136844;27;20051;-35
2021/09/02 02:56:45;;;;;;;7.82;6.30;;;18.00;81.50;;;;;;5137049;27;20035;-36
2021/09/02 02:59:10;;;;;;;9.27;6.55;;;18.00;81.60;;;;;;5136870;27;20050;-35
2021/09/02 03:01:37;;;;;;;10.00;6.68;;;18.00;81.60;;;;;;5136984;27;20026;-36
2021/09/02 03:04:03;;;;;;;6.45;5.85;;;18.00;81.60;;;;;;5136791;27;20088;-35
2021/09/02 03:06:29;;;;;;;6.38;5.78;;;18.00;81.70;;;;;;5136675;27;20066;-36
2021/09/02 03:08:55;;;;;;;6.22;5.63;;;18.00;81.50;;;;;;5137508;27;20419;-36
2021/09/02 03:11:20;;;;;;;9.63;6.47;;;18.00;81.70;;;;;;5136682;27;20050;-36
2021/09/02 03:13:46;;;;;;;5.78;5.28;;;18.00;81.60;;;;;;5137283;27;20421;-35
2021/09/02 03:16:12;;;;;;;6.78;5.85;;;18.00;81.80;;;;;;5137027;27;20035;-36
2021/09/02 03:18:37;;;;;;;8.40;5.65;;;18.00;81.90;;;;;;5137026;27;20051;-36
2021/09/02 03:21:03;;;;;;;6.88;5.93;;;18.00;81.60;;;;;;5136968;27;20035;-36
2021/09/02 03:23:29;;;;;;;6.10;5.03;;;18.00;81.60;;;;;;5136837;27;20038;-35
2021/09/02 03:25:55;;;;;;;6.88;6.05;;;18.10;81.90;;;;;;5136518;27;20027;-35
2021/09/02 03:28:20;;;;;;;6.47;5.38;;;18.10;81.60;;;;;;5136810;28;20019;-36
2021/09/02 03:30:46;;;;;;;7.40;6.40;;;18.00;81.20;;;;;;5136664;28;20024;-35
2021/09/02 03:33:12;;;;;;;7.78;5.93;;;18.10;81.20;;;;;;5136939;28;20073;-37
2021/09/02 03:35:37;;;;;;;6.13;5.53;;;18.10;80.90;;;;;;5136288;28;20027;-37
2021/09/02 03:38:03;;;;;;;7.45;5.40;;;18.10;81.30;;;;;;5137033;28;20035;-36
2021/09/02 03:40:29;;;;;;;6.47;5.80;;;18.10;80.70;;;;;;5136106;28;20419;-35
2021/09/02 03:42:54;;;;;;;6.18;5.53;;;18.10;81.20;;;;;;5138938;27;20068;-35
2021/09/02 03:45:20;;;;;;;6.20;5.32;;;18.10;80.40;;;;;;5140346;27;20024;-37
2021/09/02 03:47:50;;;;;;;7.18;4.72;;;18.10;80.10;;;;;;5140452;27;20031;-36
2021/09/02 03:50:17;;;;;;;6.78;5.20;;;18.10;79.90;;;;;;5140717;27;20084;-35
2021/09/02 03:52:43;;;;;;;7.70;5.45;;;18.10;80.20;;;;;;5140335;27;20028;-35
2021/09/02 03:55:10;;;;;;;6.68;4.75;;;18.10;80.20;;;;;;5140325;27;20031;-36
2021/09/02 03:57:35;;;;;;;5.63;5.05;;;18.10;79.90;;;;;;5140402;27;20343;-35
2021/09/02 04:00:04;;;;;;;8.63;5.63;;;18.10;80.30;;;;;;5140553;27;20031;-36
2021/09/02 04:02:29;;;;;;;9.75;6.82;;;18.10;80.10;;;;;;5139857;27;20484;-35
2021/09/02 04:04:55;;;;;;;8.98;5.53;;;18.10;79.90;;;;;;5140368;27;20035;-36
2021/09/02 04:07:21;;;;;;;7.57;5.40;;;18.10;80.00;;;;;;5139964;27;20071;-36
2021/09/02 04:09:46;;;;;;;6.93;5.88;;;18.10;79.50;;;;;;5140069;27;20077;-35
2021/09/02 04:12:12;;;;;;;7.20;5.28;;;18.10;79.10;;;;;;5140128;27;20054;-35
2021/09/02 04:14:37;;;;;;;8.95;5.43;;;18.10;78.70;;;;;;5140037;27;20055;-36
2021/09/02 04:17:03;;;;;;;6.10;5.45;;;18.00;78.20;;;;;;5140050;27;20061;-35
2021/09/02 04:19:29;;;;;;;6.95;5.35;;;18.00;78.50;;;;;;5139665;27;20062;-36
2021/09/02 04:21:55;;;;;;;7.30;5.40;;;18.00;78.20;;;;;;5139518;27;20023;-35
2021/09/02 04:24:21;;;;;;;7.10;5.20;;;18.10;77.90;;;;;;5140122;27;20038;-35
2021/09/02 04:26:46;;;;;;;8.35;5.93;;;18.10;76.40;;;;;;5139500;27;20027;-35
2021/09/02 04:29:12;;;;;;;11.73;6.10;;;18.10;75.60;;;;;;5139587;27;20098;-36
2021/09/02 04:31:38;;;;;;;7.63;5.60;;;18.10;75.50;;;;;;5139596;27;20034;-35
2021/09/02 04:34:04;;;;;;;11.32;6.45;;;18.00;75.60;;;;;;5139364;27;20442;-36
2021/09/02 04:36:29;;;;;;;10.30;5.95;;;18.00;75.70;;;;;;5139363;27;20112;-35
2021/09/02 04:38:55;;;;;;;9.07;6.30;;;18.00;75.30;;;;;;5139478;27;20042;-34
2021/09/02 04:41:21;;;;;;;9.40;6.00;;;18.10;75.40;;;;;;5139196;27;20231;-37
2021/09/02 04:43:46;;;;;;;6.65;5.13;;;18.10;75.10;;;;;;5139562;27;20308;-34
2021/09/02 04:46:12;;;;;;;9.30;6.32;;;18.10;76.00;;;;;;5139130;27;20030;-34
2021/09/02 04:48:38;;;;;;;7.93;6.35;;;18.10;75.60;;;;;;5139609;27;20038;-36
2021/09/02 04:51:04;;;;;;;9.82;6.38;;;18.10;75.20;;;;;;5139158;27;20023;-35
2021/09/02 04:53:30;;;;;;;8.50;6.55;;;18.20;75.10;;;;;;5139066;27;20126;-35
2021/09/02 04:55:56;;;;;;;8.38;6.30;;;18.20;75.30;;;;;;5139446;27;20023;-35
2021/09/02 04:58:21;;;;;;;8.30;6.10;;;18.30;74.70;;;;;;5139317;27;20031;-35
2021/09/02 05:00:47;;;;;;;10.30;6.30;;;18.30;74.70;;;;;;5120631;27;20057;-35
2021/09/02 05:03:13;;;;;;;9.77;5.50;;;18.40;74.80;;;;;;5139236;27;20023;-35
2021/09/02 05:05:39;;;;;;;10.52;6.45;;;18.40;74.00;;;;;;5131988;27;20028;-35
2021/09/02 05:08:06;;;;;;;8.85;5.82;;;18.50;73.40;;;;;;5127033;27;20024;-36
2021/09/02 05:10:32;;;;;;;11.35;7.00;;;18.50;74.30;;;;;;5118011;28;20040;-35
2021/09/02 05:12:58;;;;;;;9.18;6.38;;;18.60;73.50;;;;;;5118689;28;20406;-35
2021/09/02 05:15:23;;;;;;;8.00;6.40;;;18.60;73.50;;;;;;5118055;28;20039;-35
2021/09/02 05:17:49;;;;;;;11.10;6.68;;;18.70;73.10;;;;;;5118320;28;20034;-34
2021/09/02 05:20:15;;;;;;;11.68;7.18;;;18.70;73.40;;;;;;5118086;28;20042;-36
2021/09/02 05:22:43;;;;;;;11.27;6.22;;;18.70;72.70;;;;;;5118043;28;20327;-35
2021/09/02 05:25:09;;;;;;;8.70;6.70;;;18.80;71.80;;;;;;5117977;28;20041;-35
2021/09/02 05:27:36;;;;;;;8.68;6.40;;;18.80;71.50;;;;;;5117817;28;20093;-35
2021/09/02 05:30:03;;;;;;;8.73;5.95;;;18.80;70.50;;;;;;5117292;28;20031;-35
2021/09/02 05:32:29;;;;;;;9.63;6.75;;;18.70;70.90;;;;;;5117062;28;20073;-36
2021/09/02 05:34:55;;;;;;;9.23;6.38;;;18.70;70.30;;;;;;5118269;28;20407;-35
2021/09/02 05:37:21;;;;;;;9.75;6.10;;;18.70;71.50;;;;;;5117535;28;20088;-36
2021/09/02 05:39:47;;;;;;;11.13;7.38;;;18.70;71.70;;;;;;5117899;28;20036;-35
2021/09/02 05:42:12;;;;;;;11.68;8.02;;;18.80;71.40;;;;;;5117554;28;20039;-36
2021/09/02 05:44:38;;;;;;;8.63;6.57;;;18.80;71.00;;;;;;5117712;28;20073;-35
2021/09/02 05:47:04;;;;;;;9.25;6.20;;;18.80;71.60;;;;;;5117730;28;20028;-35
2021/09/02 05:49:30;;;;;;;9.20;6.47;;;18.90;71.10;;;;;;5117420;28;20418;-35
2021/09/02 05:51:55;;;;;;;8.05;5.65;;;18.90;71.50;;;;;;5117630;28;20106;-35
2021/09/02 05:54:21;;;;;;;21.20;13.38;;;18.90;72.30;;;;;;5117324;28;20043;-36
2021/09/02 05:56:47;;;;;;;10.20;6.57;;;19.00;71.30;;;;;;5117441;28;20031;-35
2021/09/02 05:59:13;;;;;;;7.72;5.38;;;19.10;71.40;;;;;;5122841;27;20295;-35
2021/09/02 06:01:38;;;;;;;8.35;5.88;;;19.10;71.50;;;;;;5128471;27;20419;-35
2021/09/02 06:04:04;;;;;;;8.63;6.07;;;19.10;70.60;;;;;;5117485;28;20141;-35
2021/09/02 06:06:30;;;;;;;10.38;6.95;;;19.20;69.30;;;;;;5118626;27;20023;-35
2021/09/02 06:08:55;;;;;;;10.40;6.53;;;19.20;69.20;;;;;;5117077;28;20032;-35
2021/09/02 06:11:22;;;;;;;12.07;7.05;;;19.20;69.30;;;;;;5124432;27;20031;-35
2021/09/02 06:13:47;;;;;;;9.70;6.57;;;19.20;69.00;;;;;;5118969;27;20051;-36
2021/09/02 06:16:13;;;;;;;7.47;6.03;;;19.20;69.20;;;;;;5116884;28;20108;-35
2021/09/02 06:18:39;;;;;;;7.75;6.40;;;19.30;69.20;;;;;;5117065;28;20023;-36
2021/09/02 06:21:04;;;;;;;9.23;7.00;;;19.30;68.80;;;;;;5116692;28;20032;-36
2021/09/02 06:23:30;;;;;;;10.35;7.43;;;19.40;68.90;;;;;;5117128;28;20338;-35
2021/09/02 06:25:56;;;;;;;8.60;6.75;;;19.50;68.60;;;;;;5116617;28;20063;-35
2021/09/02 06:28:22;;;;;;;10.40;6.63;;;19.50;69.40;;;;;;5116980;28;20048;-36
2021/09/02 06:30:48;;;;;;;10.02;7.18;;;19.60;69.60;;;;;;5116966;28;20096;-36
2021/09/02 06:33:14;;;;;;;11.68;8.32;;;19.70;68.90;;;;;;5116305;28;20034;-40
2021/09/02 06:35:39;;;;;;;9.48;7.72;;;19.70;68.70;;;;;;5116496;28;20565;-36
2021/09/02 06:38:06;;;;;;;10.27;7.28;;;19.90;68.50;;;;;;5116941;28;20088;-36
2021/09/02 06:40:32;;;;;;;14.18;8.32;;;20.00;68.10;;;;;;5116546;28;20373;-36
2021/09/02 06:42:57;;;;;;;13.68;9.05;;;20.10;67.90;;;;;;5116910;28;20032;-36
2021/09/02 06:45:23;;;;;;;12.13;7.32;;;20.20;67.60;;;;;;5115870;28;20079;-36
2021/09/02 06:47:49;;;;;;;9.75;6.57;;;20.30;66.40;;;;;;5116697;28;20167;-36
2021/09/02 06:50:15;;;;;;;9.45;7.00;;;20.30;65.50;;;;;;5116385;28;20355;-36
2021/09/02 06:52:42;;;;;;;8.38;6.25;;;20.40;65.70;;;;;;5115822;28;20374;-38
2021/09/02 06:55:08;;;;;;;10.98;8.95;;;20.50;65.30;;;;;;5116178;28;20031;-35
2021/09/02 06:57:35;;;;;;;9.95;7.43;;;20.50;65.40;;;;;;5115972;28;20036;-35
2021/09/02 07:00:03;;;;;;;9.45;7.55;;;20.60;65.20;;;;;;5116087;28;20050;-35
2021/09/02 07:02:28;;;;;;;11.18;6.70;;;20.70;64.90;;;;;;5115334;28;20085;-36
2021/09/02 07:04:54;;;;;;;10.18;6.55;;;20.70;64.70;;;;;;5116435;28;20031;-36
2021/09/02 07:07:20;;;;;;;11.82;6.13;;;20.70;64.60;;;;;;5115809;28;20074;-37
2021/09/02 07:09:45;;;;;;;10.63;7.47;;;20.70;64.70;;;;;;5115993;28;20387;-35
2021/09/02 07:12:11;;;;;;;13.25;7.40;;;20.70;64.60;;;;;;5115998;28;20032;-35
2021/09/02 07:14:37;;;;;;;9.63;7.50;;;20.60;65.20;;;;;;5115758;28;20028;-35
2021/09/02 07:17:03;;;;;;;8.90;6.35;;;20.50;65.40;;;;;;5115111;28;20369;-35
2021/09/02 07:19:29;;;;;;;9.45;6.35;;;20.50;65.70;;;;;;5116084;28;20039;-35
2021/09/02 07:21:55;;;;;;;12.52;7.82;;;20.50;64.90;;;;;;5115897;28;20050;-36
2021/09/02 07:24:21;;;;;;;11.73;6.40;;;20.50;65.50;;;;;;5115590;28;20028;-35
2021/09/02 07:26:46;;;;;;;8.77;6.57;;;20.50;65.40;;;;;;5115329;28;20024;-36
2021/09/02 07:29:12;;;;;;;6.68;5.30;;;20.60;65.00;;;;;;5115685;28;20107;-36
2021/09/02 07:31:39;;;;;;;8.25;5.55;;;20.60;64.20;;;;;;5115713;28;20034;-35
2021/09/02 07:34:05;;;;;;;7.57;5.55;;;20.60;63.70;;;;;;5116120;28;20031;-36
2021/09/02 07:36:31;;;;;;;9.07;6.32;;;20.60;63.90;;;;;;5115456;28;20034;-37
2021/09/02 07:38:57;;;;;;;8.32;6.65;;;20.50;64.30;;;;;;5115941;28;20027;-36
2021/09/02 07:41:22;;;;;;;8.77;6.85;;;20.50;64.90;;;;;;5115517;28;20023;-37
2021/09/02 07:43:48;;;;;;;8.40;6.03;;;20.40;65.10;;;;;;5116112;28;20059;-36
2021/09/02 07:46:14;;;;;;;11.10;5.45;;;20.40;65.10;;;;;;5115588;28;20100;-37
2021/09/02 07:48:41;;;;;;;11.48;5.50;;;20.40;64.10;;;;;;5115820;28;20110;-36
2021/09/02 07:51:07;;;;;;;5.32;4.40;;;20.40;63.50;;;;;;5115525;28;20100;-36
2021/09/02 07:53:33;;;;;;;6.93;4.55;;;20.40;63.40;;;;;;5115585;28;20078;-36
2021/09/02 07:55:59;;;;;;;8.70;4.82;;;20.40;63.10;;;;;;5115726;28;20027;-36
2021/09/02 07:58:25;;;;;;;9.98;5.45;;;20.50;61.80;;;;;;5115636;28;20290;-36
2021/09/02 08:00:50;;;;;;;5.03;4.05;;;20.50;61.50;;;;;;5115407;28;20161;-35
2021/09/02 08:03:16;;;;;;;6.95;5.22;;;20.50;61.10;;;;;;5115531;28;20042;-36
2021/09/02 08:05:42;;;;;;;10.27;5.30;;;20.50;61.60;;;;;;5115370;28;20035;-36
2021/09/02 08:08:08;;;;;;;7.78;4.75;;;20.50;61.60;;;;;;5115856;28;20028;-37
2021/09/02 08:10:34;;;;;;;6.78;5.32;;;20.40;61.80;;;;;;5115255;28;20035;-34
2021/09/02 08:12:59;;;;;;;7.88;5.05;;;20.40;61.50;;;;;;5115752;28;20042;-37
2021/09/02 08:15:26;;;;;;;6.85;5.28;;;20.40;61.50;;;;;;5115403;28;20319;-37
2021/09/02 08:17:53;;;;;;;6.43;4.80;;;20.40;61.80;;;;;;5115729;28;20306;-36
2021/09/02 08:20:20;;;;;;;6.30;5.00;;;20.30;61.60;;;;;;5115354;28;20089;-36
2021/09/02 08:22:47;;;;;;;10.48;4.78;;;20.30;62.70;;;;;;5115458;28;20347;-36
2021/09/02 08:25:13;;;;;;;9.85;4.40;;;20.40;62.20;;;;;;5115625;28;20038;-36
2021/09/02 08:27:40;;;;;;;7.90;5.28;;;20.40;61.80;;;;;;5115415;28;20031;-36
2021/09/02 08:30:07;;;;;;;8.23;4.72;;;20.40;61.80;;;;;;5119065;28;20055;-37
2021/09/02 08:32:32;;;;;;;7.80;4.97;;;20.50;62.00;;;;;;5118831;28;20276;-36
2021/09/02 08:34:58;;;;;;;6.63;4.95;;;20.50;62.00;;;;;;5118969;28;20046;-36
2021/09/02 08:37:24;;;;;;;7.03;5.03;;;20.50;62.30;;;;;;5117772;28;20309;-36
2021/09/02 08:39:50;;;;;;;9.45;5.75;;;20.60;62.00;;;;;;5117035;28;20040;-36
2021/09/02 08:42:16;;;;;;;9.00;4.57;;;20.50;62.10;;;;;;5116741;28;20035;-37
2021/09/02 08:44:43;;;;;;;7.90;4.68;;;20.50;61.50;;;;;;5117035;28;20134;-37
2021/09/02 08:47:10;;;;;;;7.43;5.05;;;20.50;60.40;;;;;;5117175;28;20039;-36
2021/09/02 08:49:37;;;;;;;8.10;4.35;;;20.40;60.00;;;;;;5116761;28;20036;-36
2021/09/02 08:52:03;;;;;;;7.72;4.40;;;20.40;59.70;;;;;;5116737;28;20068;-36
2021/09/02 08:54:32;;;;;;;9.02;5.20;;;20.20;59.70;;;;;;5116141;28;20047;-36
2021/09/02 08:56:57;;;;;;;9.23;4.95;;;20.20;60.60;;;;;;5116587;28;20031;-36
2021/09/02 08:59:23;;;;;;;14.18;4.75;;;20.10;59.60;;;;;;5098553;28;20032;-36
2021/09/02 09:01:50;;;;;;;6.88;4.50;;;20.00;59.60;;;;;;5116752;28;20049;-36
2021/09/02 09:04:16;;;;;;;8.95;5.07;;;19.90;60.10;;;;;;5122134;27;20039;-36
2021/09/02 09:06:42;;;;;;;15.73;5.97;;;19.90;60.30;;;;;;5133506;27;20432;-36
2021/09/02 09:09:16;;;;;;;6.68;5.18;;;19.90;60.60;;;;;;5127403;27;20094;-36
2021/09/02 09:11:49;;;;;;;15.23;5.15;;;19.90;60.70;;;;;;5118096;28;20030;-36
2021/09/02 09:14:25;;;;;;;9.10;5.68;;;20.00;60.30;;;;;;5118139;28;20019;-36
2021/09/02 09:16:52;;;;;;;9.38;6.47;;;19.90;61.20;;;;;;5118023;28;20036;-37
2021/09/02 09:19:52;;;;;;;11.10;4.50;;;20.00;60.40;;;;;;5117994;28;20024;-36
2021/09/02 09:22:20;;;;;;;7.30;4.40;;;20.00;60.80;;;;;;5118236;28;20023;-37
2021/09/02 09:24:51;;;;;;;11.10;4.60;;;19.90;60.20;;;;;;5118000;28;20114;-36
2021/09/02 09:27:19;;;;;;;;;;;19.90;60.00;;;;;;5118469;28;20106;-36
2021/09/02 09:29:53;;;;;;;7.38;4.15;;;19.90;60.50;;;;;;5117702;28;19908;-34
2021/09/02 09:32:19;;;;;;;8.23;4.00;;;19.80;59.50;;;;;;5117756;28;20032;-37
2021/09/02 09:34:52;;;;;;;10.48;4.57;;;19.80;58.90;;;;;;5117993;28;20288;-36
2021/09/02 09:37:19;;;;;;;8.98;4.53;;;19.70;58.20;;;;;;5120095;27;20030;-37
2021/09/02 09:39:46;;;;;;;8.75;3.80;;;19.60;57.90;;;;;;5125672;27;20323;-37
2021/09/02 09:42:11;;;;;;;18.17;3.75;;;19.60;57.50;;;;;;5117508;28;20122;-34
2021/09/02 09:44:41;;;;;;;8.52;3.33;;;19.60;57.10;;;;;;5117308;28;20150;-33
2021/09/02 09:47:17;;;;;;;9.05;4.03;;;19.60;56.30;;;;;;5117464;28;20065;-35
2021/09/02 09:49:46;;;;;;;8.43;4.30;;;19.60;55.60;;;;;;5117640;28;20338;-34
2021/09/02 09:52:21;;;;;;;7.47;3.60;;;19.50;55.40;;;;;;5117725;28;20416;-37
2021/09/02 09:54:46;;;;;;;9.38;3.40;;;19.60;54.90;;;;;;5117261;28;20343;-34
2021/09/02 09:57:13;;;;;;;8.48;4.07;;;19.60;55.60;;;;;;5117219;28;20039;-34
2021/09/02 09:59:43;;;;;;;7.72;3.65;;;19.50;55.00;;;;;;5117429;28;20040;-35
2021/09/02 10:02:09;;;;;;;10.52;3.70;;;19.60;55.30;;;;;;5117206;28;20027;-36
2021/09/02 10:04:36;;;;;;;7.88;3.75;;;19.60;54.30;;;;;;5117182;28;20088;-36
2021/09/02 10:07:05;;;;;;;12.82;3.53;;;19.60;54.30;;;;;;5117069;28;20036;-36
2021/09/02 10:09:34;;;;;;;8.53;3.73;;;19.60;53.70;;;;;;5117055;28;20092;-36
2021/09/02 10:12:01;;;;;;;13.02;3.53;;;19.60;53.50;;;;;;5116707;28;20328;-38
2021/09/02 10:14:27;;;;;;;7.07;3.20;;;19.60;52.00;;;;;;5117295;28;20024;-37
2021/09/02 10:16:53;;;;;;;5.85;3.25;;;19.60;50.70;;;;;;5116935;28;20027;-37
2021/09/02 10:19:20;;;;;;;7.80;2.70;;;19.70;50.50;;;;;;5116527;28;20339;-37
2021/09/02 10:21:47;;;;;;;9.65;2.70;;;19.70;49.90;;;;;;5116905;28;20069;-39
2021/09/02 10:24:37;;;;;;;16.38;2.85;;;19.70;49.10;;;;;;5119204;27;20073;-39
2021/09/02 10:27:29;;;;;;;;;;;19.70;49.40;;;;;;5122003;27;20042;-34
2021/09/02 10:29:54;;;;;;;9.63;2.60;;;19.60;50.20;;;;;;5117777;27;19964;-39
2021/09/02 10:32:30;;;;;;;5.30;2.85;;;19.60;49.10;;;;;;5130679;27;20027;-33
2021/09/02 10:35:01;;;;;;;8.45;2.78;;;19.70;48.40;;;;;;5134087;27;20344;-37
2021/09/02 10:37:36;;;;;;;6.82;2.75;;;19.70;47.80;;;;;;5130573;27;20403;-38
2021/09/02 10:40:05;;;;;;;7.93;3.05;;;19.80;46.10;;;;;;5128723;27;20110;-35
2021/09/02 10:42:46;;;;;;;5.10;2.50;;;19.80;46.50;;;;;;5136855;27;20083;-38
2021/09/02 10:45:30;;;;;;;6.60;2.83;;;19.90;46.90;;;;;;5137002;27;20034;-34
2021/09/02 10:47:57;;;;;;;9.25;2.92;;;20.00;46.50;;;;;;5137149;27;20107;-34
2021/09/02 10:50:25;;;;;;;9.25;2.58;;;20.10;47.20;;;;;;5130215;27;20027;-38
2021/09/02 10:52:51;;;;;;;4.88;2.42;;;20.20;47.00;;;;;;5116297;28;20032;-38
2021/09/02 10:55:36;;;;;;;7.78;2.45;;;20.20;46.40;;;;;;5116266;28;20042;-39
2021/09/02 10:58:06;;;;;;;5.22;2.53;;;20.30;45.70;;;;;;5116707;28;20062;-33
2021/09/02 11:00:39;;;;;;;10.25;2.60;;;20.40;45.70;;;;;;5115782;28;20043;-33
2021/09/02 11:03:12;;;;;;;9.18;3.10;;;20.30;45.50;;;;;;5116362;28;20046;-38
2021/09/02 11:05:38;;;;;;;8.07;2.50;;;20.30;45.50;;;;;;5116064;28;20314;-34
2021/09/02 11:08:04;;;;;;;7.78;2.90;;;20.30;46.20;;;;;;5116028;28;20032;-38
2021/09/02 11:10:29;;;;;;;9.55;2.65;;;20.30;45.50;;;;;;5115623;28;20028;-39
2021/09/02 11:13:06;;;;;;;4.65;2.20;;;20.30;45.40;;;;;;5116473;28;20062;-34
2021/09/02 11:15:34;;;;;;;10.93;2.70;;;20.40;44.40;;;;;;5115714;28;20031;-38
2021/09/02 11:18:02;;;;;;;5.18;2.47;;;20.40;43.60;;;;;;5116347;28;20288;-34
2021/09/02 11:20:30;;;;;;;5.65;2.55;;;20.30;43.10;;;;;;5115715;28;20039;-34
2021/09/02 11:23:10;;;;;;;4.40;2.65;;;20.30;43.70;;;;;;5116203;28;20059;-34
2021/09/02 11:25:43;;;;;;;;;;;20.30;43.30;;;;;;5115932;28;20447;-37
2021/09/02 11:28:09;;;;;;;9.32;2.80;;;20.30;44.40;;;;;;5116385;28;19908;-39
2021/09/02 11:30:35;;;;;;;12.18;2.63;;;20.30;43.70;;;;;;5115183;28;20027;-35
2021/09/02 11:33:02;;;;;;;8.93;2.33;;;20.20;42.00;;;;;;5116009;28;20030;-39
2021/09/02 11:35:29;;;;;;;5.55;2.38;;;20.10;42.30;;;;;;5115449;28;20107;-34
2021/09/02 11:37:55;;;;;;;5.57;2.60;;;20.20;42.30;;;;;;5115959;28;20356;-34
2021/09/02 11:40:35;;;;;;;4.80;2.33;;;20.10;42.80;;;;;;5115919;28;20040;-33
2021/09/02 11:43:01;;;;;;;;;;;20.20;43.20;;;;;;5116553;28;20027;-33
2021/09/02 11:45:29;;;;;;;14.38;2.30;;;20.20;44.00;;;;;;5115663;28;20283;-34
2021/09/02 11:48:01;;;;;;;4.60;2.22;;;20.20;44.20;;;;;;5116097;28;20401;-33
2021/09/02 11:50:26;;;;;;;5.65;2.50;;;20.20;42.80;;;;;;5115285;28;20032;-35
2021/09/02 11:52:53;;;;;;;2.80;1.83;;;20.20;42.00;;;;;;5115713;28;20099;-34
2021/09/02 11:55:21;;;;;;;5.93;2.67;;;20.20;42.90;;;;;;5115856;28;20027;-40
2021/09/02 11:57:51;;;;;;;5.85;2.63;;;20.10;44.20;;;;;;5115823;28;20032;-39
2021/09/02 12:00:17;;;;;;;7.82;2.83;;;20.20;45.60;;;;;;5115231;28;20161;-35
2021/09/02 12:02:51;;;;;;;10.23;3.38;;;20.20;46.20;;;;;;5115452;28;20036;-35
2021/09/02 12:05:35;;;;;;;4.97;2.20;;;20.10;46.20;;;;;;5119006;28;20028;-38
2021/09/02 12:08:02;;;;;;;5.43;2.55;;;20.10;46.30;;;;;;5119204;28;20165;-38
2021/09/02 12:10:28;;;;;;;5.82;2.85;;;20.10;46.60;;;;;;5119244;28;20031;-39
2021/09/02 12:12:54;;;;;;;5.18;2.78;;;20.00;47.00;;;;;;5119468;28;20110;-40
2021/09/02 12:15:24;;;;;;;4.65;2.95;;;19.90;45.90;;;;;;5119081;28;20125;-39
2021/09/02 12:18:02;;;;;;;6.78;2.45;;;19.90;46.00;;;;;;5119340;28;20046;-39
2021/09/02 12:20:28;;;;;;;9.90;2.75;;;19.80;45.60;;;;;;5118968;28;20445;-38
2021/09/02 12:22:53;;;;;;;4.68;2.50;;;19.80;45.40;;;;;;5119224;28;20039;-34
2021/09/02 12:25:20;;;;;;;7.60;2.92;;;19.80;45.40;;;;;;5119164;28;20036;-38
2021/09/02 12:27:49;;;;;;;10.93;2.78;;;19.80;45.80;;;;;;5119048;28;20039;-39
2021/09/02 12:30:42;;;;;;;6.93;2.78;;;19.80;45.90;;;;;;5118932;28;20140;-39
2021/09/02 12:33:19;;;;;;;7.63;2.80;;;19.70;46.00;;;;;;5119639;28;20026;-39
2021/09/02 12:35:46;;;;;;;4.72;2.85;;;19.60;46.20;;;;;;5118876;28;20107;-39
2021/09/02 12:38:33;;;;;;;5.82;2.83;;;19.60;46.80;;;;;;5119168;28;20047;-35
2021/09/02 12:41:16;;;;;;;7.50;2.80;;;19.50;46.80;;;;;;5118945;28;20032;-39
2021/09/02 12:44:01;;;;;;;8.27;3.00;;;19.50;47.10;;;;;;5119228;28;20031;-40